KTTD/TTD METAR and TAF weather

Enter ICAO airport designator
Station Type Date Time Source
KTTD METAR 2021/01/20 22:53 UTC NOAA

KTTD 202253Z 00000KT 10SM FEW060 OVC085 09/01 A3014 RMK AO2 SLP204 T00890011


Station Type Date Time Source
KTTD Decoded METAR 2021/01/20 22:53 UTC NOAA

PORTLAND-TROUTDALE AIRPORT, OR, United States (KTTD) 45-33N 122-25W 14M
Jan 20, 2021 - 05:53 PM EST / 2021.01.20 2253 UTC
Wind: Calm:0
Visibility: 10 mile(s):0
Sky conditions: overcast
Temperature: 48.0 F (8.9 C)
Dew Point: 34.0 F (1.1 C)
Relative Humidity: 58%
Pressure (altimeter): 30.14 in. Hg (1020 hPa)
ob: KTTD 202253Z 00000KT 10SM FEW060 OVC085 09/01 A3014 RMK AO2 SLP204 T00890011
cycle: 23

Station Type Date Time Source
KTTD TAF 2021/01/20 18:36 UTC NOAA

TAF KTTD 201733Z 2018/2118 00000KT P6SM BKN250
FM210000 00000KT P6SM BKN100
FM210700 00000KT P6SM BKN040
FM210900 00000KT 6SM -RA OVC030
FM211200 00000KT P6SM VCSH OVC018

Example: see airport list